Wilmington, OH

11:00 AM EDT on July 22, 2017 (GMT -0400)
Truesdell St | | Change Station

Elev 1023 ft 39.44 °N, 83.83 °W | Updated 22 seconds ago

Scattered Clouds
Scattered Clouds
79.4 °F
Feels Like 84 °F
N
2.0
Wind Variable Wind from SE

Today
High -- | Low -- °F
--% Chance of Precip.
Yesterday
High -- | Low -- °F
Precip. -- in
Pressure 29.88 in
Visibility 8.0 miles
Clouds Few 4900 ft
Scattered Clouds 6000 ft
Heat Index 84 °F
Dew Point 75 °F
Humidity 88%
Rainfall 0.00 in
Snow Depth Not available.
6:26 AM 8:56 PM
Waning Crescent, 1% visible
METAR KILN 221454Z AUTO 19009KT 8SM FEW049 SCT060 26/24 A2991 RMK AO2 LTG DSNT NE AND NW SLP116 T02610244 56006
Pressure 29.88 in
Visibility 8.0 miles
Clouds Few 4900 ft
Scattered Clouds 6000 ft
Heat Index 84 °F
Dew Point 75 °F
Humidity 88%
Rainfall 0.00 in
Snow Depth Not available.
6:26 AM 8:56 PM
Waning Crescent, 1% visible
METAR KILN 221454Z AUTO 19009KT 8SM FEW049 SCT060 26/24 A2991 RMK AO2 LTG DSNT NE AND NW SLP116 T02610244 56006

Get Severe Weather Alerts

Thanks for signing up!

Be on the lookout for a verification email in your inbox.

You'll start receiving the daily forecast at 6 AM.

×

10-Day Weather Forecast

Almanac

Astronomy

Jul. 22, 2017 Rise Set
Actual Time
Civil Twilight
Nautical Twilight
Astronomical Twilight
Moon
Length of Visible Light
Length of Day
Tomorrow will be .
, % of the Moon is Illuminated

Today's Extremes

State Highs State Lows

Community

WunderPhotos

Category 6

Welcome to Category 6. This is the collective home for Weather Underground's featured writeups by Dr. Jeff Masters (right), Bob Henson (left), Chris Burt, and other regular contributors.

Nearby

Air Quality

  Air Quality AQ Index Pollutant
Not available.

Snow Depth

Station Depth Elevation

Earthquake Activity

City Distance Mag. Time & Date
Minimum magnitude displayed is 2.5.

Coastal Water Temperatures

Place Temperature

Stations

Nearby Weather Stations

Station Location Temp. Windchill Dew Point Humidity Wind Precip. Elev Updated Type
                   

Watches & Warnings

There are currently no watches in effect.